»·PEaware :: VRD715 KDFW-KSFO

VRD715 :: KDFW-KSFO

FLIGHT INFORMATION

Flight Status: Arrived
Operator:
Virgin America
More flights by this operator :: More flights under this callsign
Pilot: Justin U. (116)
Aircraft: AIRBUS A319
(A319)
More flights by this aircraft type
Origin: KDFW Dallas-Ft Worth Intl
United States
Destination: KSFO San Francisco Intl
United States
More flights between these airports :: More routes between these airports
Route: SLOTT5 TCC KD39S ILC OAL MOD4
File this flight plan on PilotEdge
Remarks:
Altitude:
(Current/Filed)
36,000ft
Speed:
(Current/Filed)
460kts
Departed: 04-Nov-13 12:52 PM
Arrived: 04-Nov-13 04:12 PM
Distance/Time
Traveled:
1269nm/3:20
Distance/Time
To Go:
Arrived

Flight Plot

Page will automatically refresh every two minutes.


Map Options




Map Legend


Flown Route
Filed Route
Departure Airport
Arrival Airport
Navaid (VOR, NDB)
Fix

Horizontal Profiles

Position Reports

Time Latitude Longitude Heading Altitude Ground
Speed
04-Nov-13 12:42 32.888077 -97.035258 251 618ft 0kts
04-Nov-13 12:43 32.886957 -97.035032 166 618ft 9kts
04-Nov-13 12:44 32.886029 -97.038274 271 618ft 18kts
04-Nov-13 12:45 32.886063 -97.047237 270 618ft 32kts
04-Nov-13 12:46 32.890289 -97.048866 1 618ft 24kts
04-Nov-13 12:47 32.897734 -97.048792 0 618ft 29kts
04-Nov-13 12:48 32.905607 -97.048757 359 618ft 26kts
04-Nov-13 12:49 32.913135 -97.048693 1 618ft 32kts
04-Nov-13 12:50 32.906056 -97.050740 178 624ft 146kts
04-Nov-13 12:51 32.864035 -97.058092 189 3308ft 180kts
04-Nov-13 12:52 32.804860 -97.072099 191 6773ft 245kts
04-Nov-13 12:53 32.766846 -97.139964 261 11252ft 288kts
04-Nov-13 12:54 32.774550 -97.242443 286 15047ft 329kts
04-Nov-13 12:55 32.814745 -97.342306 292 19155ft 339kts
04-Nov-13 12:56 32.858525 -97.445256 290 22402ft 358kts
04-Nov-13 12:57 32.904200 -97.552745 287 25453ft 367kts
04-Nov-13 12:58 32.950787 -97.662810 286 28097ft 374kts
04-Nov-13 13:09 33.173723 -99.004391 271 36024ft 376kts
04-Nov-13 13:10 33.188757 -99.107253 271 36015ft 376kts
04-Nov-13 13:11 33.206592 -99.229956 270 36010ft 375kts
04-Nov-13 13:12 33.224304 -99.352787 270 36015ft 374kts
04-Nov-13 13:13 33.241849 -99.475329 270 36014ft 373kts
04-Nov-13 13:14 33.274042 -99.592830 294 36010ft 395kts
04-Nov-13 13:15 33.346034 -99.697793 296 36013ft 411kts
04-Nov-13 13:16 33.418679 -99.804186 296 36003ft 411kts
04-Nov-13 13:17 33.491030 -99.910438 296 36003ft 412kts
04-Nov-13 13:18 33.563618 -100.017393 295 36003ft 413kts
04-Nov-13 13:19 33.635644 -100.123815 295 36003ft 411kts
04-Nov-13 13:20 33.707679 -100.230693 296 35993ft 413kts
04-Nov-13 13:21 33.778541 -100.339032 290 36001ft 405kts
04-Nov-13 13:22 33.832243 -100.455296 285 36003ft 392kts
04-Nov-13 13:23 33.884126 -100.570906 285 36003ft 391kts
04-Nov-13 13:24 33.935864 -100.686577 285 36003ft 391kts
04-Nov-13 13:25 33.987294 -100.801932 284 36003ft 391kts
04-Nov-13 13:26 34.038781 -100.917810 284 36003ft 390kts
04-Nov-13 13:27 34.090045 -101.033582 284 36003ft 390kts
04-Nov-13 13:28 34.141052 -101.149149 284 36003ft 390kts
04-Nov-13 13:29 34.192024 -101.265005 284 36012ft 389kts
04-Nov-13 13:30 34.242634 -101.380453 284 36013ft 389kts
04-Nov-13 13:31 34.293134 -101.495999 284 36013ft 388kts
04-Nov-13 13:32 34.343594 -101.611871 284 36015ft 388kts
04-Nov-13 13:33 34.393766 -101.727471 284 36028ft 387kts
04-Nov-13 13:34 34.443923 -101.843445 284 36029ft 388kts
04-Nov-13 13:35 34.494060 -101.959747 284 36034ft 388kts
04-Nov-13 13:36 34.543863 -102.075663 284 36042ft 388kts
04-Nov-13 13:37 34.593727 -102.192133 284 36044ft 389kts
04-Nov-13 13:38 34.643578 -102.308949 284 36043ft 389kts
04-Nov-13 13:39 34.693173 -102.425580 284 36041ft 389kts
04-Nov-13 13:40 34.742947 -102.543041 284 36043ft 390kts
04-Nov-13 13:41 34.792498 -102.660377 284 36043ft 390kts
04-Nov-13 13:42 34.842150 -102.778350 283 36043ft 391kts
04-Nov-13 13:43 34.891834 -102.896841 283 36043ft 392kts
04-Nov-13 13:44 34.941254 -103.015106 283 36043ft 392kts
04-Nov-13 13:45 34.990667 -103.133795 284 36043ft 391kts
04-Nov-13 13:46 35.039976 -103.252638 284 36043ft 391kts
04-Nov-13 13:47 35.088999 -103.371198 284 36043ft 391kts
04-Nov-13 13:48 35.138069 -103.490300 284 36043ft 391kts
04-Nov-13 13:49 35.185856 -103.609995 280 36043ft 388kts
04-Nov-13 13:50 35.232716 -103.754605 279 36043ft 385kts
04-Nov-13 13:51 35.265266 -103.856151 279 36043ft 385kts
04-Nov-13 13:52 35.304335 -103.978497 279 36043ft 385kts
04-Nov-13 13:53 35.343259 -104.100884 279 36043ft 385kts
04-Nov-13 13:54 35.381918 -104.222936 279 36043ft 385kts
04-Nov-13 13:55 35.420608 -104.345592 279 36043ft 384kts
04-Nov-13 13:56 35.459039 -104.468050 280 36031ft 385kts
04-Nov-13 13:57 35.497556 -104.591232 279 36035ft 387kts
04-Nov-13 13:58 35.536160 -104.715157 279 36034ft 388kts
04-Nov-13 13:59 35.574508 -104.838784 279 36035ft 387kts
04-Nov-13 14:00 35.612807 -104.962817 279 36034ft 387kts
04-Nov-13 14:01 35.651006 -105.087035 279 36029ft 387kts
04-Nov-13 14:02 35.688961 -105.210992 279 36035ft 388kts
04-Nov-13 14:03 35.727023 -105.335811 279 36037ft 388kts
04-Nov-13 14:04 35.764648 -105.459750 279 36031ft 387kts
04-Nov-13 14:05 35.802335 -105.584438 279 36035ft 387kts
04-Nov-13 14:06 35.839932 -105.709484 280 36015ft 391kts
04-Nov-13 14:07 35.877687 -105.835511 280 36013ft 392kts
04-Nov-13 14:08 35.915465 -105.962171 280 36023ft 392kts
04-Nov-13 14:09 35.952940 -106.088386 279 36026ft 392kts
04-Nov-13 14:10 35.990429 -106.215197 279 36023ft 392kts
04-Nov-13 14:11 36.027739 -106.342001 279 36025ft 392kts
04-Nov-13 14:12 36.064822 -106.468571 279 36024ft 392kts
04-Nov-13 14:13 36.101861 -106.595579 279 36022ft 391kts
04-Nov-13 14:14 36.138630 -106.722249 279 36018ft 389kts
04-Nov-13 14:15 36.175144 -106.848661 279 36006ft 392kts
04-Nov-13 14:16 36.212038 -106.976955 279 36008ft 396kts
04-Nov-13 14:17 36.248969 -107.106011 280 35984ft 399kts
04-Nov-13 14:18 36.286395 -107.237496 281 35994ft 408kts
04-Nov-13 14:19 36.318041 -107.349004 281 35983ft 412kts
04-Nov-13 14:20 36.355854 -107.482893 281 35987ft 410kts
04-Nov-13 14:21 36.393539 -107.617005 280 35952ft 411kts
04-Nov-13 14:22 36.431151 -107.751438 280 35923ft 411kts
04-Nov-13 14:23 36.468458 -107.885526 280 35923ft 411kts
04-Nov-13 14:24 36.506342 -108.019919 281 35923ft 412kts
04-Nov-13 14:25 36.547209 -108.153432 281 35923ft 412kts
04-Nov-13 14:26 36.587811 -108.286530 281 35923ft 412kts
04-Nov-13 14:27 36.628411 -108.420246 281 35923ft 412kts
04-Nov-13 14:28 36.668716 -108.553619 281 35923ft 412kts
04-Nov-13 14:29 36.709019 -108.687627 281 35923ft 412kts
04-Nov-13 14:30 36.749176 -108.821795 281 35923ft 412kts
04-Nov-13 14:31 36.789029 -108.955587 281 35923ft 412kts
04-Nov-13 14:32 36.829012 -109.090420 280 35953ft 414kts
04-Nov-13 14:33 36.868889 -109.225589 280 35953ft 414kts
04-Nov-13 14:34 36.908459 -109.360371 280 35952ft 414kts
04-Nov-13 14:35 36.947923 -109.495458 281 35943ft 412kts
04-Nov-13 14:36 36.987201 -109.630615 281 35942ft 413kts
04-Nov-13 14:37 37.026269 -109.765655 281 35941ft 413kts
04-Nov-13 14:38 37.065296 -109.901282 281 35945ft 413kts
04-Nov-13 14:39 37.104055 -110.036616 281 35953ft 413kts
04-Nov-13 14:40 37.142792 -110.172559 281 35945ft 413kts
04-Nov-13 14:41 37.181444 -110.308886 281 35943ft 414kts
04-Nov-13 14:42 37.219837 -110.444987 281 35943ft 415kts
04-Nov-13 14:43 37.258227 -110.581764 281 35953ft 415kts
04-Nov-13 14:44 37.296369 -110.718373 281 35953ft 415kts
04-Nov-13 14:45 37.334586 -110.856019 282 35953ft 417kts
04-Nov-13 14:46 37.372715 -110.994002 282 35953ft 417kts
04-Nov-13 14:47 37.410678 -111.132092 282 35953ft 417kts
04-Nov-13 14:48 37.447112 -111.265453 285 37911ft 398kts
04-Nov-13 14:49 37.484337 -111.402310 285 37953ft 418kts
04-Nov-13 14:50 37.521884 -111.540971 286 37967ft 420kts
04-Nov-13 14:51 37.559534 -111.680947 286 37973ft 421kts
04-Nov-13 14:52 37.597088 -111.821198 286 37973ft 421kts
04-Nov-13 14:53 37.634351 -111.961120 286 37973ft 421kts
04-Nov-13 14:54 37.671560 -112.101602 286 37973ft 421kts
04-Nov-13 14:55 37.708594 -112.242193 286 37973ft 421kts
04-Nov-13 14:56 37.745357 -112.382522 286 37973ft 421kts
04-Nov-13 14:57 37.782053 -112.523376 286 37973ft 421kts
04-Nov-13 14:58 37.818496 -112.664019 286 37994ft 423kts
04-Nov-13 14:59 37.855075 -112.806109 287 38042ft 424kts
04-Nov-13 15:00 37.891561 -112.948527 287 38040ft 424kts
04-Nov-13 15:01 37.927723 -113.090512 287 38042ft 424kts
04-Nov-13 15:02 37.963854 -113.233177 287 38043ft 424kts
04-Nov-13 15:03 37.999821 -113.376015 287 38044ft 424kts
04-Nov-13 15:04 38.035467 -113.518388 286 38044ft 424kts
04-Nov-13 15:05 38.071079 -113.661468 286 38043ft 424kts
04-Nov-13 15:06 38.106527 -113.804724 286 38041ft 424kts
04-Nov-13 15:07 38.141663 -113.947549 287 38047ft 424kts
04-Nov-13 15:08 38.176719 -114.090979 287 38043ft 424kts
04-Nov-13 15:09 38.211628 -114.234603 288 38043ft 424kts
04-Nov-13 15:10 38.245802 -114.377958 283 38038ft 424kts
04-Nov-13 15:11 38.242177 -114.529016 269 38037ft 430kts
04-Nov-13 15:12 38.232986 -114.680886 269 38033ft 431kts
04-Nov-13 15:13 38.223571 -114.833403 269 38033ft 432kts
04-Nov-13 15:14 38.213925 -114.986043 270 38033ft 434kts
04-Nov-13 15:15 38.204060 -115.139362 270 38036ft 434kts
04-Nov-13 15:16 38.194084 -115.291472 270 38033ft 430kts
04-Nov-13 15:17 38.183948 -115.442789 270 38033ft 430kts
04-Nov-13 15:18 38.173586 -115.594642 270 38033ft 430kts
04-Nov-13 15:19 38.162958 -115.746858 271 38023ft 435kts
04-Nov-13 15:20 38.152115 -115.899808 271 38022ft 435kts
04-Nov-13 15:21 38.141036 -116.053176 271 38030ft 435kts
04-Nov-13 15:22 38.129805 -116.205836 271 38034ft 434kts
04-Nov-13 15:23 38.118347 -116.358958 272 38035ft 433kts
04-Nov-13 15:24 38.106738 -116.511111 272 38035ft 431kts
04-Nov-13 15:25 38.095000 -116.662539 272 38032ft 431kts
04-Nov-13 15:26 38.083042 -116.814297 272 38024ft 430kts
04-Nov-13 15:27 38.070949 -116.965277 272 38022ft 430kts
04-Nov-13 15:28 38.058623 -117.116770 272 38023ft 430kts
04-Nov-13 15:29 38.046103 -117.268033 272 38024ft 430kts
04-Nov-13 15:30 38.033431 -117.418848 272 38023ft 430kts
04-Nov-13 15:31 38.022688 -117.544910 272 38023ft 430kts
04-Nov-13 15:32 38.009612 -117.696272 271 38022ft 431kts
04-Nov-13 15:33 37.995146 -117.846986 270 38024ft 432kts
04-Nov-13 15:34 37.979231 -117.998256 270 38023ft 432kts
04-Nov-13 15:35 37.963177 -118.148843 271 38001ft 431kts
04-Nov-13 15:36 37.946843 -118.300069 273 38039ft 436kts
04-Nov-13 15:37 37.930098 -118.452922 273 38043ft 437kts
04-Nov-13 15:38 37.910444 -118.630572 273 38064ft 435kts
04-Nov-13 15:39 37.896219 -118.757522 273 38064ft 436kts
04-Nov-13 15:40 37.878993 -118.909753 273 38062ft 436kts
04-Nov-13 15:41 37.861609 -119.061469 272 38064ft 436kts
04-Nov-13 15:42 37.843959 -119.213706 272 38062ft 436kts
04-Nov-13 15:43 37.826116 -119.365813 272 38064ft 436kts
04-Nov-13 15:44 37.808130 -119.517509 272 38061ft 437kts
04-Nov-13 15:45 37.789873 -119.669823 272 38063ft 437kts
04-Nov-13 15:46 37.771514 -119.821204 273 38045ft 436kts
04-Nov-13 15:47 37.752879 -119.972853 273 37660ft 432kts
04-Nov-13 15:48 37.733996 -120.125022 273 33648ft 417kts
04-Nov-13 15:49 37.715073 -120.276647 271 30733ft 448kts
04-Nov-13 15:50 37.695634 -120.430098 271 28006ft 432kts
04-Nov-13 15:51 37.676741 -120.577552 271 25565ft 415kts
04-Nov-13 15:52 37.658717 -120.717032 272 23292ft 395kts
04-Nov-13 15:53 37.641112 -120.851767 272 21156ft 382kts
04-Nov-13 15:54 37.624049 -120.986225 270 19237ft 391kts
04-Nov-13 15:55 37.609634 -121.113697 271 17388ft 356kts
04-Nov-13 15:56 37.595502 -121.238293 271 15573ft 354kts
04-Nov-13 15:57 37.581542 -121.360504 268 13906ft 356kts
04-Nov-13 15:58 37.567286 -121.483430 268 12313ft 349kts
04-Nov-13 15:59 37.553098 -121.604749 267 11014ft 360kts
04-Nov-13 16:00 37.519523 -121.720256 249 8393ft 330kts
04-Nov-13 16:01 37.490315 -121.816983 273 7449ft 284kts
04-Nov-13 16:02 37.496770 -121.912667 287 6994ft 269kts
04-Nov-13 16:03 37.514465 -122.002563 295 6115ft 259kts
04-Nov-13 16:04 37.538537 -122.086591 294 4044ft 248kts
04-Nov-13 16:05 37.556229 -122.165851 291 2711ft 220kts
04-Nov-13 16:06 37.574647 -122.227823 290 2388ft 176kts
04-Nov-13 16:07 37.585685 -122.280212 279 1489ft 130kts
04-Nov-13 16:08 37.598816 -122.322162 296 748ft 123kts
04-Nov-13 16:09 37.614836 -122.360225 296 42ft 116kts
04-Nov-13 16:10 37.622161 -122.380450 275 23ft 9kts
04-Nov-13 16:11 37.619489 -122.381173 118 23ft 25kts
04-Nov-13 16:12 37.616074 -122.380713 9 23ft 8kts
04-Nov-13 16:13 37.616569 -122.380605 9 23ft 0kts
04-Nov-13 16:14 37.616569 -122.380605 9 23ft 0kts

Navigation Log

Ident Type
1. KDFW Airport
2. SLOTT Fix
3. MANKI Fix
4. OWING Fix
5. GTH Navaid
6. TCC Navaid
7. KD39S Fix
8. ILC Navaid
9. OAL Navaid
10. INYOE Fix
11. KYLLA Fix
12. TROSE Fix
13. MOD Navaid
14. GROAN Fix
15. CEDES Fix
16. OOMEN Fix
17. MEHTA Fix
18. KSFO Airport